Time;durP1;ratioP1;P1;durP2;ratioP2;P2;SDS_P1;SDS_P2;PMS_P1;PMS_P2;Temp;Humidity;BMP_temperature;BMP_pressure;BME280_temperature;BME280_humidity;BME280_pressure;Samples;Min_cycle;Max_cycle;Signal;HPM_P1;HPM_P2
2022/07/27 00:00:50;;;;;;;;;;;27.60;73.20;;;;;;5046114;28;20308;-50
2022/07/27 00:03:17;;;;;;;;;;;27.60;73.10;;;;;;5045178;28;20292;-57
2022/07/27 00:05:45;;;;;;;;;;;27.60;73.10;;;;;;5047629;28;19933;-55
2022/07/27 00:08:12;;;;;;;;;;;27.60;73.30;;;;;;5049922;28;20577;-56
2022/07/27 00:10:39;;;;;;;;;;;27.60;73.20;;;;;;5053389;28;19924;-55
2022/07/27 00:13:06;;;;;;;;;;;27.60;73.20;;;;;;5032312;28;19925;-53
2022/07/27 00:15:33;;;;;;;;;;;27.60;73.20;;;;;;5042649;28;19935;-56
2022/07/27 00:18:00;;;;;;;;;;;27.60;73.20;;;;;;5036599;28;19937;-55
2022/07/27 00:20:28;;;;;;;;;;;27.60;73.30;;;;;;5057087;28;19932;-55
2022/07/27 00:22:56;;;;;;;;;;;27.60;73.30;;;;;;5055403;28;20396;-52
2022/07/27 00:25:25;;;;;;;;;;;27.60;73.20;;;;;;5052908;28;19936;-54
2022/07/27 00:27:53;;;;;;;;;;;27.60;73.30;;;;;;5047896;28;19936;-53
2022/07/27 00:30:20;;;;;;;;;;;27.60;73.90;;;;;;5056589;28;19929;-57
2022/07/27 00:32:47;;;;;;;;;;;27.60;73.30;;;;;;5050983;28;19944;-57
2022/07/27 00:35:15;;;;;;;;;;;27.60;73.30;;;;;;5051620;28;19929;-56
2022/07/27 00:37:42;;;;;;;;;;;27.60;73.20;;;;;;5060879;28;19925;-57
2022/07/27 00:40:09;;;;;;;;;;;27.60;73.30;;;;;;5054982;28;19933;-53
2022/07/27 00:42:36;;;;;;;;;;;27.50;73.20;;;;;;5052350;28;19928;-56
2022/07/27 00:45:04;;;;;;;;;;;27.60;73.30;;;;;;5051865;28;19943;-56
2022/07/27 00:47:31;;;;;;;;;;;27.50;73.20;;;;;;5037573;28;20340;-56
2022/07/27 00:49:59;;;;;;;;;;;27.60;73.40;;;;;;5052836;28;19925;-57
2022/07/27 00:52:27;;;;;;;;;;;27.60;73.50;;;;;;5054851;28;19928;-54
2022/07/27 00:54:54;;;;;;;;;;;27.50;73.50;;;;;;5049114;28;20297;-56
2022/07/27 00:57:21;;;;;;;;;;;27.50;73.30;;;;;;5053876;28;19928;-55
2022/07/27 00:59:48;;;;;;;;;;;27.50;73.40;;;;;;5058268;28;20306;-55
2022/07/27 01:02:16;;;;;;;;;;;27.50;73.30;;;;;;5047284;28;19941;-56
2022/07/27 01:04:50;;;;;;;;;;;27.50;73.40;;;;;;5055276;28;19928;-53
2022/07/27 01:07:20;;;;;;;;;;;27.50;73.40;;;;;;5044968;28;20301;-56
2022/07/27 01:09:56;;;;;;;;;;;27.50;73.60;;;;;;5052676;28;19929;-54
2022/07/27 01:12:26;;;;;;;;;;;27.50;73.50;;;;;;5058339;28;19937;-57
2022/07/27 01:14:54;;;;;;;;;;;27.50;73.60;;;;;;5047046;28;19936;-58
2022/07/27 01:17:21;;;;;;;;;;;27.40;73.60;;;;;;5055047;28;19929;-54
2022/07/27 01:19:49;;;;;;;;;;;27.40;73.50;;;;;;5048048;28;19933;-55
2022/07/27 01:22:16;;;;;;;;;;;27.50;73.70;;;;;;5053004;28;19932;-55
2022/07/27 01:24:43;;;;;;;;;;;27.40;73.60;;;;;;5052632;28;19925;-55
2022/07/27 01:27:11;;;;;;;;;;;27.40;73.60;;;;;;5075194;28;20427;-56
2022/07/27 01:29:38;;;;;;;;;;;27.40;74.30;;;;;;5052910;28;19929;-50
2022/07/27 01:32:05;;;;;;;;;;;27.40;73.80;;;;;;5050266;28;19928;-54
2022/07/27 01:34:33;;;;;;;;;;;27.40;73.90;;;;;;5043209;28;19929;-55
2022/07/27 01:37:00;;;;;;;;;;;27.40;73.90;;;;;;5053805;28;19935;-56
2022/07/27 01:39:27;;;;;;;;;;;27.40;73.90;;;;;;5056586;28;19933;-58
2022/07/27 01:41:54;;;;;;;;;;;27.40;73.90;;;;;;5043477;28;19937;-55
2022/07/27 01:44:21;;;;;;;;;;;27.40;74.00;;;;;;5051694;28;19928;-56
2022/07/27 01:46:49;;;;;;;;;;;27.40;74.10;;;;;;5063068;28;19928;-57
2022/07/27 01:49:16;;;;;;;;;;;27.40;74.10;;;;;;5052931;28;19933;-56
2022/07/27 01:51:44;;;;;;;;;;;27.40;74.20;;;;;;5041370;28;20008;-56
2022/07/27 01:54:11;;;;;;;;;;;27.40;74.20;;;;;;5056117;28;19935;-55
2022/07/27 01:56:38;;;;;;;;;;;27.40;74.30;;;;;;5041164;28;19951;-53
2022/07/27 01:59:05;;;;;;;;;;;27.40;74.30;;;;;;5056583;28;19935;-55
2022/07/27 02:01:32;;;;;;;;;;;27.30;74.30;;;;;;5046273;28;20146;-56
2022/07/27 02:04:00;;;;;;;;;;;27.30;74.30;;;;;;5056888;28;19935;-57
2022/07/27 02:06:27;;;;;;;;;;;27.30;74.30;;;;;;5045197;28;19929;-58
2022/07/27 02:08:54;;;;;;;;;;;27.30;74.40;;;;;;5052296;28;19925;-55
2022/07/27 02:14:07;;;;;;;;;;;27.30;74.40;;;;;;5053556;28;19932;-55
2022/07/27 02:16:34;;;;;;;;;;;27.30;74.40;;;;;;5048800;28;19939;-56
2022/07/27 02:19:01;;;;;;;;;;;27.30;74.40;;;;;;5055952;28;20375;-56
2022/07/27 02:21:31;;;;;;;;;;;27.30;74.50;;;;;;5044610;28;20319;-56
2022/07/27 02:23:58;;;;;;;;;;;27.30;74.50;;;;;;5069097;28;20410;-54
2022/07/27 02:26:26;;;;;;;;;;;27.30;74.50;;;;;;5041546;28;20289;-54
2022/07/27 02:28:53;;;;;;;;;;;27.30;74.50;;;;;;5048820;28;20439;-53
2022/07/27 02:31:20;;;;;;;;;;;27.30;74.50;;;;;;5044626;28;19928;-58
2022/07/27 02:33:47;;;;;;;;;;;27.30;74.50;;;;;;5054356;28;19936;-54
2022/07/27 02:36:14;;;;;;;;;;;27.30;74.60;;;;;;5059541;28;19928;-56
2022/07/27 02:38:42;;;;;;;;;;;27.30;74.60;;;;;;5038965;28;20415;-54
2022/07/27 02:41:09;;;;;;;;;;;27.30;74.60;;;;;;5049423;28;19929;-58
2022/07/27 02:43:36;;;;;;;;;;;27.30;74.70;;;;;;5054677;28;19936;-55
2022/07/27 02:46:03;;;;;;;;;;;27.30;74.70;;;;;;5055958;28;20404;-55
2022/07/27 02:48:31;;;;;;;;;;;27.30;74.70;;;;;;5049340;28;19928;-54
2022/07/27 02:50:59;;;;;;;;;;;27.20;74.60;;;;;;5048728;28;20380;-56
2022/07/27 02:53:27;;;;;;;;;;;27.20;74.60;;;;;;5037828;28;19941;-55
2022/07/27 02:55:54;;;;;;;;;;;27.20;75.30;;;;;;5047404;28;19932;-58
2022/07/27 02:58:22;;;;;;;;;;;27.20;74.70;;;;;;5052374;28;19935;-56
2022/07/27 03:00:49;;;;;;;;;;;27.20;74.70;;;;;;5047530;28;19928;-56
2022/07/27 03:03:23;;;;;;;;;;;27.20;74.70;;;;;;5046105;28;19948;-55
2022/07/27 03:06:04;;;;;;;;;;;27.20;74.60;;;;;;5047089;28;20483;-53
2022/07/27 03:08:31;;;;;;;;;;;27.20;74.70;;;;;;5039956;28;19936;-53
2022/07/27 03:10:58;;;;;;;;;;;27.20;74.70;;;;;;5044769;28;19925;-56
2022/07/27 03:13:27;;;;;;;;;;;27.20;74.70;;;;;;5040917;28;20000;-56
2022/07/27 03:15:54;;;;;;;;;;;27.20;74.70;;;;;;5056587;28;19931;-58
2022/07/27 03:18:21;;;;;;;;;;;27.10;74.70;;;;;;5045744;28;19935;-56
2022/07/27 03:20:48;;;;;;;;;;;27.10;74.60;;;;;;5057547;28;19928;-56
2022/07/27 03:23:17;;;;;;;;;;;27.10;74.70;;;;;;5051639;28;20188;-52
2022/07/27 03:25:44;;;;;;;;;;;27.10;74.70;;;;;;5054754;28;19935;-55
2022/07/27 03:28:11;;;;;;;;;;;27.10;74.70;;;;;;5054834;28;19935;-53
2022/07/27 03:30:38;;;;;;;;;;;27.20;74.70;;;;;;5051161;28;20411;-58
2022/07/27 03:33:05;;;;;;;;;;;27.10;74.70;;;;;;5046758;28;19925;-57
2022/07/27 03:35:32;;;;;;;;;;;27.10;74.70;;;;;;5052058;28;19928;-59
2022/07/27 03:38:00;;;;;;;;;;;27.10;74.80;;;;;;5046419;28;19928;-56
2022/07/27 03:40:31;;;;;;;;;;;27.10;74.70;;;;;;5051706;28;19929;-57
2022/07/27 03:42:59;;;;;;;;;;;27.10;74.70;;;;;;5045520;28;19928;-56
2022/07/27 03:45:26;;;;;;;;;;;27.10;74.70;;;;;;5047418;28;19929;-55
2022/07/27 03:47:53;;;;;;;;;;;27.10;74.70;;;;;;5049028;28;19982;-57
2022/07/27 03:50:21;;;;;;;;;;;27.10;74.70;;;;;;5037019;28;19929;-53
2022/07/27 03:52:48;;;;;;;;;;;27.10;74.70;;;;;;5042154;28;19929;-54
2022/07/27 03:55:16;;;;;;;;;;;27.10;74.80;;;;;;5048567;28;19951;-58
2022/07/27 03:57:43;;;;;;;;;;;27.10;74.70;;;;;;5042759;28;19928;-54
2022/07/27 04:00:14;;;;;;;;;;;27.00;74.60;;;;;;5046611;28;20296;-53
2022/07/27 04:02:41;;;;;;;;;;;27.00;74.70;;;;;;5046068;28;19936;-54
2022/07/27 04:05:09;;;;;;;;;;;27.00;74.80;;;;;;5043014;28;20316;-56
2022/07/27 04:07:36;;;;;;;;;;;27.00;74.80;;;;;;5048707;28;19924;-54
2022/07/27 04:10:04;;;;;;;;;;;27.00;74.80;;;;;;5044380;28;20396;-56
2022/07/27 04:12:31;;;;;;;;;;;27.00;74.80;;;;;;5045984;28;19929;-57
2022/07/27 04:14:58;;;;;;;;;;;27.00;74.90;;;;;;5048681;28;19940;-54
2022/07/27 04:17:25;;;;;;;;;;;27.00;74.90;;;;;;5044950;28;19925;-56
2022/07/27 04:20:12;;;;;;;;;;;27.00;74.90;;;;;;5049791;28;20339;-54
2022/07/27 04:22:40;;;;;;;;;;;27.00;75.00;;;;;;5049448;28;19924;-53
2022/07/27 04:25:08;;;;;;;;;;;27.00;75.00;;;;;;5052311;28;19944;-59
2022/07/27 04:27:35;;;;;;;;;;;27.00;74.90;;;;;;5051375;28;20396;-57
2022/07/27 04:30:03;;;;;;;;;;;27.00;75.00;;;;;;5048249;28;20399;-56
2022/07/27 04:32:35;;;;;;;;;;;27.00;75.10;;;;;;5043741;28;19929;-59
2022/07/27 04:35:03;;;;;;;;;;;27.00;75.00;;;;;;5042684;28;19936;-53
2022/07/27 04:37:30;;;;;;;;;;;27.00;75.00;;;;;;5047243;28;19936;-52
2022/07/27 04:39:58;;;;;;;;;;;26.90;75.00;;;;;;5044735;28;19940;-52
2022/07/27 04:42:25;;;;;;;;;;;26.90;75.10;;;;;;5051004;28;20332;-53
2022/07/27 04:44:52;;;;;;;;;;;26.90;75.10;;;;;;5041343;28;19944;-55
2022/07/27 04:47:19;;;;;;;;;;;26.90;75.10;;;;;;5047912;28;19929;-58
2022/07/27 04:49:46;;;;;;;;;;;26.90;75.10;;;;;;5056622;28;19931;-55
2022/07/27 04:52:14;;;;;;;;;;;27.00;75.20;;;;;;5047593;28;20338;-57
2022/07/27 04:54:41;;;;;;;;;;;26.90;75.20;;;;;;5050436;28;20388;-51
2022/07/27 04:57:09;;;;;;;;;;;26.90;75.20;;;;;;5049430;28;19925;-56
2022/07/27 04:59:36;;;;;;;;;;;26.90;75.20;;;;;;5050378;28;19925;-55
2022/07/27 05:02:03;;;;;;;;;;;26.90;75.10;;;;;;5046050;28;20066;-57
2022/07/27 05:04:30;;;;;;;;;;;26.90;75.10;;;;;;5050717;28;19928;-58
2022/07/27 05:06:58;;;;;;;;;;;26.90;75.20;;;;;;5043899;28;20320;-55
2022/07/27 05:09:25;;;;;;;;;;;26.90;75.10;;;;;;5053805;28;19936;-56
2022/07/27 05:11:52;;;;;;;;;;;26.90;75.10;;;;;;5049833;28;19935;-57
2022/07/27 05:14:20;;;;;;;;;;;26.90;75.10;;;;;;5058323;28;19935;-58
2022/07/27 05:16:48;;;;;;;;;;;26.90;75.70;;;;;;5051900;28;19932;-54
2022/07/27 05:19:15;;;;;;;;;;;26.90;75.00;;;;;;5047293;28;19929;-54
2022/07/27 05:21:43;;;;;;;;;;;26.90;75.00;;;;;;5053740;28;20404;-58
2022/07/27 05:24:10;;;;;;;;;;;26.90;75.00;;;;;;5053244;28;19928;-55
2022/07/27 05:26:37;;;;;;;;;;;26.90;75.00;;;;;;5057047;28;19936;-59
2022/07/27 05:29:04;;;;;;;;;;;26.80;75.00;;;;;;5046840;28;20295;-56
2022/07/27 05:31:31;;;;;;;;;;;26.80;74.90;;;;;;5053150;28;20403;-56
2022/07/27 05:33:59;;;;;;;;;;;26.80;74.90;;;;;;5054045;28;19935;-55
2022/07/27 05:36:26;;;;;;;;;;;26.80;75.00;;;;;;5044659;28;20332;-55
2022/07/27 05:38:53;;;;;;;;;;;26.80;75.00;;;;;;5039532;28;20311;-56
2022/07/27 05:41:22;;;;;;;;;;;26.80;75.00;;;;;;5065065;28;19925;-57
2022/07/27 05:43:49;;;;;;;;;;;26.80;74.90;;;;;;5049769;28;19928;-56
2022/07/27 05:46:16;;;;;;;;;;;26.80;75.00;;;;;;5047861;28;19956;-53
2022/07/27 05:48:44;;;;;;;;;;;26.90;75.00;;;;;;5058037;28;19929;-56
2022/07/27 05:51:11;;;;;;;;;;;26.90;74.90;;;;;;5045638;28;19936;-52
2022/07/27 05:53:38;;;;;;;;;;;26.90;75.00;;;;;;5056503;28;20328;-55
2022/07/27 05:56:06;;;;;;;;;;;26.80;75.00;;;;;;5041794;28;19929;-55
2022/07/27 05:58:34;;;;;;;;;;;26.90;75.00;;;;;;5048543;28;20030;-57
2022/07/27 06:01:01;;;;;;;;;;;26.90;75.20;;;;;;5049291;28;19929;-61
2022/07/27 06:03:28;;;;;;;;;;;26.90;75.30;;;;;;5055796;28;19932;-58
2022/07/27 06:07:57;;;;;;;;;;;26.90;75.80;;;;;;5043881;28;19925;-60
2022/07/27 06:08:43;;;;;;;;;;;26.90;76.40;;;;;;5044738;28;19947;-59
2022/07/27 06:11:10;;;;;;;;;;;26.90;76.30;;;;;;5045333;28;19925;-58
2022/07/27 06:13:37;;;;;;;;;;;26.90;76.00;;;;;;5046464;28;20368;-56
2022/07/27 06:16:08;;;;;;;;;;;26.60;75.90;;;;;;5041105;28;19940;-57
2022/07/27 06:18:37;;;;;;;;;;;26.60;76.10;;;;;;5038553;28;19928;-58
2022/07/27 06:21:04;;;;;;;;;;;26.70;76.40;;;;;;5048542;28;19936;-53
2022/07/27 06:23:31;;;;;;;;;;;26.80;76.30;;;;;;5043810;28;19928;-57
2022/07/27 06:25:58;;;;;;;;;;;26.80;76.10;;;;;;5050995;28;20321;-56
2022/07/27 06:28:25;;;;;;;;;;;26.80;75.60;;;;;;5041444;28;19943;-55
2022/07/27 06:30:52;;;;;;;;;;;26.50;75.40;;;;;;5044900;28;20311;-60
2022/07/27 06:33:26;;;;;;;;;;;26.60;75.70;;;;;;5045925;28;19936;-61
2022/07/27 06:35:56;;;;;;;;;;;26.60;75.80;;;;;;5042004;28;20293;-56
2022/07/27 06:38:25;;;;;;;;;;;26.70;75.60;;;;;;5044955;28;19925;-57
2022/07/27 06:40:52;;;;;;;;;;;26.80;75.30;;;;;;5038849;28;19944;-60
2022/07/27 06:43:24;;;;;;;;;;;26.80;75.20;;;;;;5042474;28;19928;-58
2022/07/27 06:45:55;;;;;;;;;;;26.80;75.00;;;;;;5046449;28;19928;-54
2022/07/27 06:48:22;;;;;;;;;;;26.80;75.00;;;;;;5050443;28;19929;-56
2022/07/27 06:50:49;;;;;;;;;;;26.90;75.00;;;;;;5049514;28;20347;-60
2022/07/27 06:53:17;;;;;;;;;;;26.90;75.10;;;;;;5056951;28;19932;-55
2022/07/27 06:55:47;;;;;;;;;;;26.90;75.20;;;;;;5047545;28;19929;-60
2022/07/27 06:58:15;;;;;;;;;;;26.90;75.20;;;;;;5046452;28;19929;-56
2022/07/27 07:00:42;;;;;;;;;;;26.90;75.30;;;;;;5046783;28;20471;-56
2022/07/27 07:03:10;;;;;;;;;;;26.90;75.40;;;;;;5056089;28;19928;-58
2022/07/27 07:05:42;;;;;;;;;;;26.90;75.40;;;;;;5063733;28;19933;-59
2022/07/27 07:08:13;;;;;;;;;;;26.90;75.50;;;;;;5058112;28;19928;-58
2022/07/27 07:10:41;;;;;;;;;;;26.90;75.60;;;;;;5043564;28;19928;-60
2022/07/27 07:13:09;;;;;;;;;;;26.90;75.70;;;;;;5044553;28;19929;-59
2022/07/27 07:15:37;;;;;;;;;;;26.90;75.90;;;;;;5042898;28;19924;-59
2022/07/27 07:18:05;;;;;;;;;;;27.00;75.90;;;;;;5043968;28;19929;-58
2022/07/27 07:20:33;;;;;;;;;;;27.00;75.90;;;;;;5044573;28;19936;-58
2022/07/27 07:23:00;;;;;;;;;;;27.00;75.90;;;;;;5055978;28;19935;-56
2022/07/27 07:25:28;;;;;;;;;;;27.10;76.00;;;;;;5046222;28;19933;-57
2022/07/27 07:27:55;;;;;;;;;;;27.10;76.00;;;;;;5051460;28;20395;-54
2022/07/27 07:30:23;;;;;;;;;;;27.00;76.10;;;;;;5045543;28;19936;-59
2022/07/27 07:32:50;;;;;;;;;;;27.00;76.30;;;;;;5045041;28;19929;-56
2022/07/27 07:35:18;;;;;;;;;;;27.10;76.50;;;;;;5041044;28;19955;-59
2022/07/27 07:37:45;;;;;;;;;;;27.00;76.50;;;;;;5054315;28;19929;-55
2022/07/27 07:40:18;;;;;;;;;;;27.00;76.50;;;;;;5048138;28;19924;-56
2022/07/27 07:43:05;;;;;;;;;;;27.00;76.70;;;;;;5048005;28;20277;-52
2022/07/27 07:45:34;;;;;;;;;;;27.00;76.80;;;;;;5047181;28;20226;-58
2022/07/27 07:48:01;;;;;;;;;;;27.00;77.00;;;;;;5046753;28;20327;-58
2022/07/27 07:50:28;;;;;;;;;;;27.00;77.00;;;;;;5051376;28;19933;-55
2022/07/27 07:52:55;;;;;;;;;;;27.00;77.00;;;;;;5043845;28;19936;-56
2022/07/27 07:55:24;;;;;;;;;;;27.00;77.00;;;;;;5048941;28;19929;-60
2022/07/27 07:57:51;;;;;;;;;;;27.10;77.10;;;;;;5050822;28;20331;-54
2022/07/27 08:00:18;;;;;;;;;;;27.10;77.00;;;;;;5051825;28;19954;-55
2022/07/27 08:02:47;;;;;;;;;;;27.10;77.10;;;;;;5050989;28;19928;-58
2022/07/27 08:05:14;;;;;;;;;;;27.10;77.10;;;;;;5047241;28;19936;-56
2022/07/27 08:07:42;;;;;;;;;;;27.20;77.10;;;;;;5048279;28;19948;-55
2022/07/27 08:10:10;;;;;;;;;;;27.20;77.10;;;;;;5051663;28;19928;-58
2022/07/27 08:12:38;;;;;;;;;;;27.20;77.10;;;;;;5045286;28;19951;-58
2022/07/27 08:15:06;;;;;;;;;;;27.20;77.10;;;;;;5043429;28;19929;-58
2022/07/27 08:17:33;;;;;;;;;;;27.20;77.20;;;;;;5047388;28;19936;-57
2022/07/27 08:20:01;;;;;;;;;;;27.20;77.20;;;;;;5049437;28;19933;-57
2022/07/27 08:22:28;;;;;;;;;;;27.30;77.30;;;;;;5055320;28;19933;-58
2022/07/27 08:24:55;;;;;;;;;;;27.30;77.30;;;;;;5056139;28;20293;-58
2022/07/27 08:27:22;;;;;;;;;;;27.30;77.40;;;;;;5047164;28;19928;-59
2022/07/27 08:29:49;;;;;;;;;;;27.30;77.40;;;;;;5050648;28;19928;-54
2022/07/27 08:32:18;;;;;;;;;;;27.30;77.40;;;;;;5042002;28;19929;-58
2022/07/27 08:34:45;;;;;;;;;;;27.30;77.40;;;;;;5038904;28;19948;-54
2022/07/27 08:37:12;;;;;;;;;;;27.30;77.40;;;;;;5054720;28;19929;-58
2022/07/27 08:39:41;;;;;;;;;;;27.30;77.40;;;;;;5055296;28;20181;-55
2022/07/27 08:42:29;;;;;;;;;;;27.40;77.40;;;;;;5048163;28;19943;-58
2022/07/27 08:44:57;;;;;;;;;;;27.40;77.40;;;;;;5054458;28;20288;-58
2022/07/27 08:47:24;;;;;;;;;;;27.40;77.40;;;;;;5049121;28;19925;-59
2022/07/27 08:49:51;;;;;;;;;;;27.40;77.40;;;;;;5060855;28;19929;-55
2022/07/27 08:52:19;;;;;;;;;;;27.40;77.40;;;;;;5035941;28;19936;-59
2022/07/27 08:54:46;;;;;;;;;;;27.40;77.40;;;;;;5048020;28;19929;-56
2022/07/27 08:57:13;;;;;;;;;;;27.40;77.40;;;;;;5040411;28;19936;-56
2022/07/27 08:59:40;;;;;;;;;;;27.40;77.40;;;;;;5054914;28;19928;-58
2022/07/27 09:02:11;;;;;;;;;;;27.40;77.50;;;;;;5043515;28;19936;-58
2022/07/27 09:04:39;;;;;;;;;;;27.30;77.60;;;;;;5052690;28;19925;-54
2022/07/27 09:07:06;;;;;;;;;;;27.30;77.70;;;;;;5045241;28;19944;-57
2022/07/27 09:09:44;;;;;;;;;;;27.40;77.70;;;;;;5059336;28;19925;-49
2022/07/27 09:12:12;;;;;;;;;;;27.40;77.80;;;;;;5036597;28;19928;-53
2022/07/27 09:14:39;;;;;;;;;;;27.40;77.80;;;;;;5045806;28;19931;-58
2022/07/27 09:17:25;;;;;;;;;;;27.40;77.80;;;;;;5039802;28;19936;-60
2022/07/27 09:20:17;;;;;;;;;;;27.40;77.80;;;;;;5046417;28;19928;-59
2022/07/27 09:22:49;;;;;;;;;;;27.40;77.70;;;;;;5048952;28;19925;-57
2022/07/27 09:25:18;;;;;;;;;;;27.40;77.70;;;;;;5049000;28;19933;-61
2022/07/27 09:28:05;;;;;;;;;;;27.40;77.60;;;;;;5055464;28;19928;-57
2022/07/27 09:30:32;;;;;;;;;;;27.50;77.70;;;;;;5045568;28;19940;-55
2022/07/27 09:33:02;;;;;;;;;;;27.40;77.70;;;;;;5047178;28;19929;-57
2022/07/27 09:35:32;;;;;;;;;;;27.40;77.80;;;;;;5057102;28;19928;-59
2022/07/27 09:38:23;;;;;;;;;;;27.40;77.90;;;;;;5055291;28;19928;-56
2022/07/27 09:41:04;;;;;;;;;;;27.40;78.00;;;;;;5038828;28;19929;-59
2022/07/27 09:43:43;;;;;;;;;;;27.40;77.90;;;;;;5053588;28;19951;-55
2022/07/27 09:46:35;;;;;;;;;;;27.40;77.90;;;;;;5047386;28;20414;-55
2022/07/27 09:49:03;;;;;;;;;;;27.30;77.90;;;;;;5055754;28;19936;-60
2022/07/27 09:51:32;;;;;;;;;;;27.40;77.90;;;;;;5054376;28;19951;-58
2022/07/27 09:54:19;;;;;;;;;;;27.40;77.90;;;;;;5053712;28;19936;-59
2022/07/27 09:56:56;;;;;;;;;;;27.40;78.00;;;;;;5049289;28;19940;-61
2022/07/27 09:59:23;;;;;;;;;;;27.30;77.90;;;;;;5054470;28;19924;-56
2022/07/27 10:01:54;;;;;;;;;;;27.30;77.90;;;;;;5051598;28;20381;-57
2022/07/27 10:04:22;;;;;;;;;;;27.40;77.90;;;;;;5053990;28;19936;-58
2022/07/27 10:06:49;;;;;;;;;;;27.40;77.80;;;;;;5057167;28;19928;-58
2022/07/27 10:09:31;;;;;;;;;;;27.40;77.90;;;;;;5056117;28;19936;-53
2022/07/27 10:11:58;;;;;;;;;;;27.40;77.90;;;;;;5059709;28;19928;-57
2022/07/27 10:14:25;;;;;;;;;;;27.40;77.90;;;;;;5051055;28;19925;-59
2022/07/27 10:16:53;;;;;;;;;;;27.40;77.90;;;;;;5053114;28;19928;-62
2022/07/27 10:19:24;;;;;;;;;;;27.30;77.80;;;;;;5049791;28;20005;-57
2022/07/27 10:21:51;;;;;;;;;;;27.30;77.90;;;;;;5066402;28;19932;-56
2022/07/27 10:24:23;;;;;;;;;;;27.30;77.90;;;;;;5054422;28;19928;-54
2022/07/27 10:26:50;;;;;;;;;;;27.30;77.90;;;;;;5049402;28;20297;-56
2022/07/27 10:29:19;;;;;;;;;;;27.40;78.00;;;;;;5047414;28;19932;-59
2022/07/27 10:31:58;;;;;;;;;;;27.30;77.90;;;;;;5046294;28;19932;-57
2022/07/27 10:34:45;;;;;;;;;;;27.30;77.90;;;;;;5055215;28;19929;-58
2022/07/27 10:37:13;;;;;;;;;;;27.30;78.00;;;;;;5050365;28;19936;-60
2022/07/27 10:39:48;;;;;;;;;;;27.30;78.00;;;;;;5061830;28;19925;-59
2022/07/27 10:42:20;;;;;;;;;;;27.30;78.00;;;;;;5048354;28;19928;-58
2022/07/27 10:44:55;;;;;;;;;;;27.30;78.00;;;;;;5051399;28;19936;-58
2022/07/27 10:47:32;;;;;;;;;;;27.30;77.90;;;;;;5048935;28;20191;-53
2022/07/27 10:50:15;;;;;;;;;;;27.30;78.00;;;;;;5050059;28;19929;-56
2022/07/27 10:52:52;;;;;;;;;;;27.30;78.00;;;;;;5042697;28;19933;-56
2022/07/27 10:55:32;;;;;;;;;;;27.30;78.00;;;;;;5053824;28;20008;-55
2022/07/27 10:58:01;;;;;;;;;;;27.30;78.10;;;;;;5045135;28;19936;-59
2022/07/27 11:00:47;;;;;;;;;;;27.30;78.10;;;;;;5056304;28;19939;-57
2022/07/27 11:03:34;;;;;;;;;;;27.30;78.10;;;;;;5061558;28;20415;-56
2022/07/27 11:06:11;;;;;;;;;;;27.30;78.00;;;;;;5047735;28;19935;-58
2022/07/27 11:08:59;;;;;;;;;;;27.30;78.00;;;;;;5067967;28;19943;-57
2022/07/27 11:11:48;;;;;;;;;;;27.30;77.90;;;;;;5054911;28;19935;-63
2022/07/27 11:14:15;;;;;;;;;;;27.30;77.90;;;;;;5055384;28;20024;-60
2022/07/27 11:16:45;;;;;;;;;;;27.30;77.90;;;;;;5050016;28;19938;-58
2022/07/27 11:19:22;;;;;;;;;;;27.30;78.00;;;;;;5050239;28;19933;-59
2022/07/27 11:21:52;;;;;;;;;;;27.30;78.00;;;;;;5050433;28;20573;-59
2022/07/27 11:24:22;;;;;;;;;;;27.30;77.90;;;;;;5050638;28;20403;-60
2022/07/27 11:26:50;;;;;;;;;;;27.30;77.90;;;;;;5054609;28;19929;-60
2022/07/27 11:29:18;;;;;;;;;;;27.40;77.90;;;;;;5063947;28;19932;-57
2022/07/27 11:31:46;;;;;;;;;;;27.40;77.90;;;;;;5052380;28;19925;-54
2022/07/27 11:34:27;;;;;;;;;;;27.40;77.90;;;;;;5046246;28;19933;-57
2022/07/27 11:36:57;;;;;;;;;;;27.30;77.90;;;;;;5060202;28;19929;-56
2022/07/27 11:39:25;;;;;;;;;;;27.30;77.90;;;;;;5052037;28;19955;-60
2022/07/27 11:42:13;;;;;;;;;;;27.30;78.00;;;;;;5049274;28;19939;-58
2022/07/27 11:44:49;;;;;;;;;;;27.30;78.00;;;;;;5074224;28;19958;-57
2022/07/27 11:47:18;;;;;;;;;;;27.30;78.00;;;;;;5051146;28;19933;-59
2022/07/27 11:49:45;;;;;;;;;;;27.40;78.00;;;;;;5054299;28;20296;-57
2022/07/27 11:52:15;;;;;;;;;;;27.40;77.90;;;;;;5039292;28;19933;-59
2022/07/27 11:54:42;;;;;;;;;;;27.40;77.90;;;;;;5046877;28;20506;-55
2022/07/27 11:57:15;;;;;;;;;;;27.40;77.90;;;;;;5046788;28;19929;-58
2022/07/27 11:59:43;;;;;;;;;;;27.40;77.90;;;;;;5046958;28;19928;-54
2022/07/27 12:02:18;;;;;;;;;;;27.40;78.00;;;;;;5057396;28;19928;-52
2022/07/27 12:04:46;;;;;;;;;;;27.30;78.00;;;;;;5038893;28;21167;-55
2022/07/27 12:07:30;;;;;;;;;;;27.30;78.10;;;;;;5041504;28;19926;-59
2022/07/27 12:09:58;;;;;;;;;;;27.30;78.10;;;;;;5051309;28;19964;-55
2022/07/27 12:12:26;;;;;;;;;;;27.30;78.10;;;;;;5054047;28;19929;-55
2022/07/27 12:14:57;;;;;;;;;;;27.30;78.10;;;;;;5054996;28;19940;-54
2022/07/27 12:17:34;;;;;;;;;;;27.30;78.10;;;;;;5057923;28;19936;-56
2022/07/27 12:20:01;;;;;;;;;;;27.30;78.20;;;;;;5055702;28;19936;-54
2022/07/27 12:22:30;;;;;;;;;;;27.30;78.20;;;;;;5048158;28;19928;-54
2022/07/27 12:24:58;;;;;;;;;;;27.30;78.10;;;;;;5049907;28;19936;-53
2022/07/27 12:27:26;;;;;;;;;;;27.30;78.00;;;;;;5052414;28;20391;-56
2022/07/27 12:30:10;;;;;;;;;;;27.40;78.00;;;;;;5051983;28;19936;-58
2022/07/27 12:32:41;;;;;;;;;;;27.40;78.00;;;;;;5043144;28;19928;-55
2022/07/27 12:35:22;;;;;;;;;;;27.40;78.00;;;;;;5056020;28;19932;-61
2022/07/27 12:38:00;;;;;;;;;;;27.40;77.90;;;;;;5060662;28;19929;-59
2022/07/27 12:40:28;;;;;;;;;;;27.40;78.00;;;;;;5051961;28;19940;-59
2022/07/27 12:42:56;;;;;;;;;;;27.40;78.00;;;;;;5058692;28;19951;-59
2022/07/27 12:45:28;;;;;;;;;;;27.40;78.00;;;;;;5050110;28;19932;-60
2022/07/27 12:48:03;;;;;;;;;;;27.40;77.90;;;;;;5056332;28;19929;-59
2022/07/27 12:50:30;;;;;;;;;;;27.40;78.00;;;;;;5050556;28;19935;-56
2022/07/27 12:52:57;;;;;;;;;;;27.40;78.00;;;;;;5047669;28;20374;-52
2022/07/27 12:55:24;;;;;;;;;;;27.40;78.10;;;;;;5044852;28;19929;-61
2022/07/27 12:57:55;;;;;;;;;;;27.30;78.10;;;;;;5053930;28;19928;-60
2022/07/27 13:00:24;;;;;;;;;;;27.30;78.10;;;;;;5050666;28;19940;-54
2022/07/27 13:02:59;;;;;;;;;;;27.30;78.10;;;;;;5051029;28;19936;-61
2022/07/27 13:05:26;;;;;;;;;;;27.40;78.10;;;;;;5045503;28;19936;-57
2022/07/27 13:07:54;;;;;;;;;;;27.40;78.00;;;;;;5047662;28;19939;-58
2022/07/27 13:10:21;;;;;;;;;;;27.40;78.00;;;;;;5042218;28;19925;-56
2022/07/27 13:12:48;;;;;;;;;;;27.40;77.90;;;;;;5048153;28;19933;-58
2022/07/27 13:15:16;;;;;;;;;;;27.50;77.90;;;;;;5050739;28;19929;-55
2022/07/27 13:17:44;;;;;;;;;;;27.50;77.80;;;;;;5057523;28;20403;-59
2022/07/27 13:20:11;;;;;;;;;;;27.60;77.70;;;;;;5057494;28;19929;-59
2022/07/27 13:22:39;;;;;;;;;;;27.60;77.70;;;;;;5057488;28;19925;-57
2022/07/27 13:25:07;;;;;;;;;;;27.60;77.70;;;;;;5052037;28;20386;-61
2022/07/27 13:27:43;;;;;;;;;;;27.60;77.70;;;;;;5054569;28;19928;-55
2022/07/27 13:30:12;;;;;;;;;;;27.60;77.70;;;;;;5046073;28;19929;-58
2022/07/27 13:32:39;;;;;;;;;;;27.60;77.80;;;;;;5044595;28;19925;-57
2022/07/27 13:35:07;;;;;;;;;;;27.50;77.70;;;;;;5046833;28;19925;-53
2022/07/27 13:37:35;;;;;;;;;;;27.60;77.90;;;;;;5046776;28;19933;-55
2022/07/27 13:40:03;;;;;;;;;;;27.60;77.80;;;;;;5051929;28;19944;-59
2022/07/27 13:42:30;;;;;;;;;;;27.60;77.70;;;;;;5062022;28;19932;-55
2022/07/27 13:45:00;;;;;;;;;;;27.70;77.70;;;;;;5051182;28;19933;-59
2022/07/27 13:47:35;;;;;;;;;;;27.80;77.60;;;;;;5041836;28;20475;-59
2022/07/27 13:50:03;;;;;;;;;;;27.80;77.40;;;;;;5056398;28;20400;-56
2022/07/27 13:52:30;;;;;;;;;;;27.80;77.50;;;;;;5045782;28;19928;-56
2022/07/27 13:54:57;;;;;;;;;;;27.70;77.50;;;;;;5062446;28;19999;-59
2022/07/27 13:57:24;;;;;;;;;;;27.70;77.60;;;;;;5050545;28;19935;-58
2022/07/27 13:59:52;;;;;;;;;;;27.70;77.70;;;;;;5048399;28;19936;-58
2022/07/27 14:02:19;;;;;;;;;;;27.60;77.60;;;;;;5055095;28;19929;-57
2022/07/27 14:04:52;;;;;;;;;;;27.60;77.70;;;;;;5051352;28;19929;-58
2022/07/27 14:07:20;;;;;;;;;;;27.60;77.70;;;;;;5058033;28;20392;-60
2022/07/27 14:12:40;;;;;;;;;;;27.60;77.70;;;;;;5037817;28;19935;-53
2022/07/27 14:15:07;;;;;;;;;;;27.60;77.80;;;;;;5050360;28;19943;-58
2022/07/27 14:17:36;;;;;;;;;;;27.60;77.80;;;;;;5050226;28;19929;-57
2022/07/27 14:20:04;;;;;;;;;;;27.60;77.80;;;;;;5042759;28;19956;-57
2022/07/27 14:22:31;;;;;;;;;;;27.60;77.80;;;;;;5052456;28;19928;-56
2022/07/27 14:24:58;;;;;;;;;;;27.60;77.90;;;;;;5051717;28;19935;-56
2022/07/27 14:27:25;;;;;;;;;;;27.60;77.90;;;;;;5059773;28;19928;-57
2022/07/27 14:30:03;;;;;;;;;;;27.60;77.80;;;;;;5055547;28;19928;-59
2022/07/27 14:32:30;;;;;;;;;;;27.80;77.70;;;;;;5047209;28;19933;-59
2022/07/27 14:34:57;;;;;;;;;;;28.00;77.40;;;;;;5052697;28;19936;-56